createdAt,value
2018-11-07T00:01:08.719Z,26.57
2018-11-07T00:03:39.592Z,25.90
2018-11-07T00:06:10.390Z,27.47
2018-11-07T00:08:41.461Z,27.53
2018-11-07T00:11:12.774Z,26.37
2018-11-07T00:13:43.664Z,25.63
2018-11-07T00:16:14.813Z,26.10
2018-11-07T00:18:45.966Z,26.97
2018-11-07T00:21:16.898Z,25.07
2018-11-07T00:23:48.162Z,25.10
2018-11-07T00:26:19.362Z,25.63
2018-11-07T00:28:50.210Z,25.73
2018-11-07T00:31:21.130Z,24.23
2018-11-07T00:33:52.091Z,25.17
2018-11-07T00:36:22.973Z,25.70
2018-11-07T00:38:53.777Z,25.00
2018-11-07T00:41:24.658Z,25.47
2018-11-07T00:43:55.509Z,26.10
2018-11-07T00:46:26.242Z,25.70
2018-11-07T00:48:57.091Z,23.40
2018-11-07T00:51:28.515Z,24.50
2018-11-07T00:53:59.441Z,24.43
2018-11-07T00:56:30.113Z,23.80
2018-11-07T00:59:00.923Z,24.23
2018-11-07T01:01:31.981Z,23.10
2018-11-07T01:04:03.081Z,23.37
2018-11-07T01:06:34.457Z,22.57
2018-11-07T01:09:07.095Z,24.63
2018-11-07T01:11:37.986Z,22.17
2018-11-07T01:14:09.202Z,23.00
2018-11-07T01:16:40.204Z,22.40
2018-11-07T01:19:11.129Z,23.30
2018-11-07T01:21:42.000Z,21.93
2018-11-07T01:24:12.739Z,21.27
2018-11-07T01:26:43.496Z,21.53
2018-11-07T01:29:14.306Z,20.33
2018-11-07T01:31:45.019Z,20.47
2018-11-07T01:34:15.884Z,22.73
2018-11-07T01:36:46.643Z,22.37
2018-11-07T01:39:17.375Z,21.23
2018-11-07T01:41:48.160Z,21.40
2018-11-07T01:44:18.769Z,21.43
2018-11-07T01:46:49.473Z,20.73
2018-11-07T01:49:20.268Z,21.00
2018-11-07T01:51:51.050Z,20.67
2018-11-07T01:54:21.924Z,20.20
2018-11-07T01:56:52.723Z,20.83
2018-11-07T01:59:23.535Z,20.70
2018-11-07T02:01:54.460Z,20.97
2018-11-07T02:04:25.189Z,20.47
2018-11-07T02:06:55.928Z,21.23
2018-11-07T02:09:26.690Z,20.30
2018-11-07T02:11:57.640Z,20.43
2018-11-07T02:14:29.305Z,20.30
2018-11-07T02:17:00.024Z,19.30
2018-11-07T02:19:30.854Z,20.97
2018-11-07T02:22:01.604Z,19.83
2018-11-07T02:24:32.339Z,20.30
2018-11-07T02:27:03.224Z,20.07
2018-11-07T02:29:34.139Z,19.90
2018-11-07T02:32:05.117Z,19.07
2018-11-07T02:34:35.927Z,20.10
2018-11-07T02:37:06.982Z,20.00
2018-11-07T02:39:37.705Z,20.00
2018-11-07T02:42:08.503Z,19.43
2018-11-07T02:44:39.397Z,19.80
2018-11-07T02:47:10.586Z,18.87
2018-11-07T02:49:41.274Z,19.27
2018-11-07T02:52:12.033Z,19.00
2018-11-07T02:54:42.878Z,18.40
2018-11-07T02:57:13.551Z,19.10
2018-11-07T02:59:44.406Z,19.37
2018-11-07T03:02:15.194Z,19.13
2018-11-07T03:04:46.146Z,19.00
2018-11-07T03:07:17.113Z,18.90
2018-11-07T03:09:47.892Z,19.67
2018-11-07T03:12:19.001Z,18.53
2018-11-07T03:14:49.798Z,19.33
2018-11-07T03:17:20.683Z,20.53
2018-11-07T03:19:51.522Z,19.53
2018-11-07T03:22:22.233Z,20.53
2018-11-07T03:24:53.084Z,19.80
2018-11-07T03:27:24.389Z,19.90
2018-11-07T03:29:55.309Z,19.43
2018-11-07T03:32:26.019Z,18.87
2018-11-07T03:34:57.222Z,19.90
2018-11-07T03:37:28.025Z,19.13
2018-11-07T03:39:59.090Z,19.43
2018-11-07T03:42:29.965Z,20.67
2018-11-07T03:45:00.714Z,20.70
2018-11-07T03:47:31.611Z,21.37
2018-11-07T03:50:02.478Z,19.93
2018-11-07T03:52:33.316Z,20.47
2018-11-07T03:55:04.319Z,19.57
2018-11-07T03:57:35.182Z,19.37
2018-11-07T04:00:08.320Z,18.83
2018-11-07T04:02:39.521Z,19.23
2018-11-07T04:05:11.802Z,18.80
2018-11-07T04:07:43.625Z,20.27
2018-11-07T04:10:14.335Z,20.67
2018-11-07T04:12:45.484Z,20.50
2018-11-07T04:15:16.346Z,20.37
2018-11-07T04:17:47.263Z,19.90
2018-11-07T04:20:18.154Z,19.47
2018-11-07T04:22:49.046Z,20.67
2018-11-07T04:25:20.341Z,19.73
2018-11-07T04:27:51.337Z,22.20
2018-11-07T04:30:22.187Z,21.47
2018-11-07T04:32:53.022Z,21.23
2018-11-07T04:35:23.843Z,21.27
2018-11-07T04:37:54.725Z,21.70
2018-11-07T04:40:26.052Z,20.07
2018-11-07T04:42:57.300Z,19.33
2018-11-07T04:45:28.266Z,20.03
2018-11-07T04:47:59.121Z,21.93
2018-11-07T04:50:30.184Z,23.23
2018-11-07T04:53:01.057Z,19.87
2018-11-07T04:55:32.398Z,20.47
2018-11-07T04:58:03.267Z,20.20
2018-11-07T05:00:34.380Z,19.40
2018-11-07T05:03:05.399Z,17.67
2018-11-07T05:05:36.359Z,19.30
2018-11-07T05:08:07.457Z,19.50
2018-11-07T05:10:38.412Z,18.43
2018-11-07T05:13:09.374Z,19.40
2018-11-07T05:15:40.319Z,19.70
2018-11-07T05:18:11.340Z,20.10
2018-11-07T05:20:42.278Z,19.60
2018-11-07T05:23:13.303Z,19.90
2018-11-07T05:25:44.180Z,18.73
2018-11-07T05:28:15.212Z,20.67
2018-11-07T05:30:46.167Z,20.27
2018-11-07T05:33:17.125Z,19.87
2018-11-07T05:35:48.016Z,20.03
2018-11-07T05:38:18.903Z,19.63
2018-11-07T05:40:49.868Z,18.13
2018-11-07T05:43:20.851Z,19.03
2018-11-07T05:45:52.237Z,18.33
2018-11-07T05:48:23.099Z,17.77
2018-11-07T05:50:54.188Z,17.43
2018-11-07T05:53:25.237Z,18.07
2018-11-07T05:55:56.240Z,17.90
2018-11-07T05:58:27.255Z,23.20
2018-11-07T06:00:58.310Z,18.07
2018-11-07T06:06:00.496Z,24.10
2018-11-07T06:08:32.556Z,17.60
2018-11-07T06:11:04.584Z,19.07
2018-11-07T06:13:36.458Z,19.70
2018-11-07T06:16:08.463Z,19.83
2018-11-07T06:18:40.623Z,18.47
2018-11-07T06:21:12.624Z,17.90
2018-11-07T06:23:44.697Z,18.17
2018-11-07T06:26:16.933Z,19.07
2018-11-07T06:28:49.623Z,18.20
2018-11-07T06:31:21.571Z,17.83
2018-11-07T06:33:54.542Z,20.80
2018-11-07T06:36:26.523Z,19.17
2018-11-07T06:38:58.873Z,20.30
2018-11-07T06:41:30.762Z,19.97
2018-11-07T06:44:03.497Z,21.67
2018-11-07T06:46:35.455Z,30.63
2018-11-07T06:49:07.716Z,24.77
2018-11-07T06:51:39.528Z,21.73
2018-11-07T06:54:11.507Z,20.03
2018-11-07T06:56:43.747Z,21.83
2018-11-07T06:59:15.672Z,23.83
2018-11-07T07:01:48.698Z,23.97
2018-11-07T07:04:20.852Z,23.50
2018-11-07T07:06:52.994Z,25.93
2018-11-07T07:09:24.799Z,27.90
2018-11-07T07:11:57.918Z,26.80
2018-11-07T07:14:30.607Z,23.93
2018-11-07T07:17:02.772Z,25.00
2018-11-07T07:19:35.201Z,22.73
2018-11-07T07:22:07.569Z,21.30
2018-11-07T07:24:39.795Z,21.87
2018-11-07T07:27:11.793Z,21.73
2018-11-07T07:29:44.000Z,21.13
2018-11-07T07:32:16.201Z,22.20
2018-11-07T07:34:48.195Z,23.03
2018-11-07T07:37:20.297Z,22.03
2018-11-07T07:39:52.454Z,22.17
2018-11-07T07:42:24.668Z,22.47
2018-11-07T07:44:56.545Z,20.43
2018-11-07T07:47:28.724Z,20.80
2018-11-07T07:50:00.982Z,20.77
2018-11-07T07:52:33.555Z,20.80
2018-11-07T07:55:06.035Z,20.53
2018-11-07T07:57:38.960Z,20.17
2018-11-07T08:00:17.111Z,20.40
2018-11-07T08:02:52.339Z,19.87
2018-11-07T08:05:24.356Z,19.77
2018-11-07T08:07:56.412Z,20.07
2018-11-07T08:10:28.442Z,21.07
2018-11-07T08:13:00.842Z,19.40
2018-11-07T08:15:32.764Z,20.77
2018-11-07T08:18:04.901Z,20.20
2018-11-07T08:20:36.896Z,20.57
2018-11-07T08:23:09.159Z,19.63
2018-11-07T08:25:41.162Z,20.73
2018-11-07T08:28:13.163Z,20.70
2018-11-07T08:30:46.444Z,20.70
2018-11-07T08:33:18.933Z,20.63
2018-11-07T08:35:51.035Z,23.13
2018-11-07T08:38:23.107Z,20.37
2018-11-07T08:40:55.025Z,20.83
2018-11-07T08:43:27.277Z,21.27
2018-11-07T08:45:59.142Z,20.90
2018-11-07T08:48:31.063Z,22.43
2018-11-07T08:51:03.158Z,22.43
2018-11-07T08:53:35.307Z,27.47
2018-11-07T08:56:07.272Z,23.83
2018-11-07T08:58:39.903Z,23.67
2018-11-07T09:01:12.262Z,24.23
2018-11-07T09:03:44.634Z,24.60
2018-11-07T09:06:16.683Z,24.37
2018-11-07T09:08:49.284Z,22.87
2018-11-07T09:11:22.168Z,23.07
2018-11-07T09:13:54.254Z,21.97
2018-11-07T09:16:26.494Z,22.47
2018-11-07T09:18:59.545Z,29.20
2018-11-07T09:21:31.694Z,24.03
2018-11-07T09:24:03.760Z,21.40
2018-11-07T09:26:35.725Z,20.67
2018-11-07T09:29:07.983Z,21.20
2018-11-07T09:31:40.062Z,20.67
2018-11-07T09:34:12.045Z,22.07
2018-11-07T09:36:45.021Z,19.77
2018-11-07T09:39:17.329Z,17.27
2018-11-07T09:41:49.592Z,16.97
2018-11-07T09:44:21.722Z,19.13
2018-11-07T09:46:53.903Z,21.73
2018-11-07T09:49:27.310Z,20.70
2018-11-07T09:51:59.561Z,17.27
2018-11-07T09:54:32.548Z,16.87
2018-11-07T09:57:04.568Z,21.23
2018-11-07T09:59:37.836Z,16.97
2018-11-07T10:02:09.929Z,16.10
2018-11-07T10:04:42.037Z,17.70
2018-11-07T10:07:13.837Z,17.77
2018-11-07T10:09:46.170Z,18.20
2018-11-07T10:12:18.266Z,17.80
2018-11-07T10:14:50.451Z,16.83
2018-11-07T10:17:22.201Z,17.37
2018-11-07T10:19:54.526Z,18.80
2018-11-07T10:22:27.980Z,17.00
2018-11-07T10:25:00.572Z,16.53
2018-11-07T10:27:33.025Z,16.27
2018-11-07T10:30:06.519Z,15.93
2018-11-07T10:32:38.061Z,15.37
2018-11-07T10:35:11.049Z,16.13
2018-11-07T10:37:43.403Z,16.97
2018-11-07T10:40:18.351Z,16.30
2018-11-07T10:42:50.388Z,17.00
2018-11-07T10:45:23.217Z,16.50
2018-11-07T10:47:55.680Z,16.43
2018-11-07T10:50:28.017Z,15.60
2018-11-07T10:52:59.954Z,19.47
2018-11-07T10:55:32.282Z,23.53
2018-11-07T10:58:05.230Z,19.90
2018-11-07T11:00:41.908Z,15.80
2018-11-07T11:03:19.104Z,16.50
2018-11-07T11:05:52.098Z,15.57
2018-11-07T11:08:24.182Z,16.33
2018-11-07T11:10:56.114Z,15.93
2018-11-07T11:13:28.139Z,16.23
2018-11-07T11:16:00.157Z,20.73
2018-11-07T11:18:32.981Z,20.70
2018-11-07T11:21:05.497Z,19.70
2018-11-07T11:23:37.640Z,17.93
2018-11-07T11:26:09.747Z,15.47
2018-11-07T11:28:41.910Z,15.87
2018-11-07T11:31:13.921Z,16.40
2018-11-07T11:33:46.218Z,17.63
2018-11-07T11:36:18.481Z,15.57
2018-11-07T11:38:50.662Z,16.33
2018-11-07T11:41:22.761Z,15.30
2018-11-07T11:43:54.993Z,14.67
2018-11-07T11:46:27.051Z,16.03
2018-11-07T11:48:59.358Z,15.10
2018-11-07T11:51:31.310Z,14.70
2018-11-07T11:54:03.389Z,20.90
2018-11-07T11:56:35.239Z,15.37
2018-11-07T11:59:07.473Z,18.40
2018-11-07T12:01:39.272Z,15.83
2018-11-07T12:04:11.056Z,16.70
2018-11-07T12:06:42.998Z,15.13
2018-11-07T12:09:15.055Z,14.93
2018-11-07T12:11:47.129Z,14.87
2018-11-07T12:14:19.351Z,14.63
2018-11-07T12:16:51.505Z,14.17
2018-11-07T12:19:23.381Z,15.63
2018-11-07T12:21:55.383Z,13.70
2018-11-07T12:24:27.473Z,14.53
2018-11-07T12:27:03.291Z,14.40
2018-11-07T12:29:35.573Z,14.53
2018-11-07T12:32:08.039Z,13.60
2018-11-07T12:34:39.871Z,13.87
2018-11-07T12:37:12.162Z,14.20
2018-11-07T12:39:44.224Z,14.93
2018-11-07T12:42:16.159Z,14.83
2018-11-07T12:44:48.401Z,14.50
2018-11-07T12:47:20.792Z,13.87
2018-11-07T12:49:53.144Z,13.80
2018-11-07T12:52:25.570Z,13.53
2018-11-07T12:54:57.588Z,14.43
2018-11-07T12:57:29.750Z,13.30
2018-11-07T13:00:02.391Z,15.70
2018-11-07T13:02:34.688Z,12.17
2018-11-07T13:05:07.725Z,13.97
2018-11-07T13:07:40.341Z,14.30
2018-11-07T13:10:16.574Z,13.23
2018-11-07T13:12:49.447Z,12.87
2018-11-07T13:15:21.904Z,13.23
2018-11-07T13:17:54.465Z,12.53
2018-11-07T13:20:27.107Z,13.73
2018-11-07T13:22:59.328Z,14.03
2018-11-07T13:25:31.776Z,12.83
2018-11-07T13:28:03.973Z,12.87
2018-11-07T13:30:36.589Z,13.23
2018-11-07T13:33:08.954Z,12.93
2018-11-07T13:35:41.115Z,13.10
2018-11-07T13:38:13.748Z,13.60
2018-11-07T13:40:45.897Z,14.30
2018-11-07T13:43:17.901Z,14.73
2018-11-07T13:45:50.254Z,13.63
2018-11-07T13:48:23.125Z,13.73
2018-11-07T13:50:55.059Z,13.37
2018-11-07T13:53:27.221Z,13.80
2018-11-07T13:55:59.273Z,13.67
2018-11-07T13:58:31.375Z,12.47
2018-11-07T14:01:03.821Z,12.93
2018-11-07T14:03:36.647Z,13.17
2018-11-07T14:06:09.057Z,13.87
2018-11-07T14:08:41.576Z,13.40
2018-11-07T14:11:13.745Z,13.37
2018-11-07T14:13:45.871Z,13.60
2018-11-07T14:16:17.995Z,13.73
2018-11-07T14:18:50.319Z,16.60
2018-11-07T14:21:22.681Z,13.73
2018-11-07T14:23:54.867Z,14.57
2018-11-07T14:26:27.217Z,14.90
2018-11-07T14:29:00.388Z,16.43
2018-11-07T14:31:32.499Z,14.30
2018-11-07T14:34:04.993Z,15.50
2018-11-07T14:36:36.824Z,15.20
2018-11-07T14:39:10.258Z,14.43
2018-11-07T14:41:42.890Z,15.13
2018-11-07T14:44:15.015Z,14.33
2018-11-07T14:46:48.305Z,14.93
2018-11-07T14:49:20.423Z,14.30
2018-11-07T14:51:52.749Z,13.73
2018-11-07T14:54:24.890Z,15.03
2018-11-07T14:56:57.253Z,14.30
2018-11-07T14:59:29.020Z,14.53
2018-11-07T15:02:01.008Z,15.00
2018-11-07T15:04:33.452Z,20.87
2018-11-07T15:07:05.405Z,17.10
2018-11-07T15:09:37.288Z,18.97
2018-11-07T15:12:10.302Z,17.03
2018-11-07T15:14:42.443Z,22.73
2018-11-07T15:17:14.268Z,19.33
2018-11-07T15:19:47.146Z,18.73
2018-11-07T15:22:19.632Z,17.57
2018-11-07T15:24:51.786Z,17.30
2018-11-07T15:27:23.825Z,16.93
2018-11-07T15:29:56.524Z,15.93
2018-11-07T15:32:29.448Z,19.63
2018-11-07T15:35:01.534Z,16.80
2018-11-07T15:37:33.440Z,18.17
2018-11-07T15:40:06.015Z,20.67
2018-11-07T15:42:38.504Z,22.90
2018-11-07T15:45:13.255Z,22.27
2018-11-07T15:47:45.349Z,18.60
2018-11-07T15:50:22.932Z,19.30
2018-11-07T15:52:55.408Z,17.63
2018-11-07T15:55:27.400Z,18.30
2018-11-07T15:57:59.778Z,19.23
2018-11-07T16:00:32.297Z,17.93
2018-11-07T16:03:04.748Z,18.97
2018-11-07T16:05:36.672Z,19.80
2018-11-07T16:08:09.815Z,19.70
2018-11-07T16:10:41.852Z,21.87
2018-11-07T16:13:14.045Z,23.23
2018-11-07T16:15:46.353Z,23.17
2018-11-07T16:18:18.231Z,27.40
2018-11-07T16:20:51.400Z,33.77
2018-11-07T16:23:23.624Z,31.67
2018-11-07T16:25:56.052Z,26.83
2018-11-07T16:28:28.048Z,24.90
2018-11-07T16:30:59.925Z,27.03
2018-11-07T16:33:32.506Z,27.10
2018-11-07T16:36:04.661Z,25.33
2018-11-07T16:38:36.956Z,25.13
2018-11-07T16:41:09.947Z,23.17
2018-11-07T16:43:41.927Z,22.83
2018-11-07T16:46:14.927Z,23.13
2018-11-07T16:48:47.146Z,22.77
2018-11-07T16:51:19.536Z,25.40
2018-11-07T16:53:51.763Z,20.40
2018-11-07T16:56:23.798Z,22.17
2018-11-07T16:58:56.061Z,27.23
2018-11-07T17:01:28.175Z,29.53
2018-11-07T17:04:00.855Z,27.37
2018-11-07T17:06:33.267Z,42.63
2018-11-07T17:09:06.832Z,43.37
2018-11-07T17:11:39.205Z,33.23
2018-11-07T17:14:11.992Z,31.73
2018-11-07T17:16:44.262Z,27.80
2018-11-07T17:19:16.370Z,24.67
2018-11-07T17:21:48.298Z,24.90
2018-11-07T17:24:20.635Z,26.00
2018-11-07T17:26:52.973Z,25.07
2018-11-07T17:29:25.110Z,23.93
2018-11-07T17:31:57.372Z,25.17
2018-11-07T17:34:29.488Z,25.30
2018-11-07T17:37:01.526Z,26.27
2018-11-07T17:39:34.149Z,23.90
2018-11-07T17:42:06.119Z,23.00
2018-11-07T17:44:38.601Z,23.83
2018-11-07T17:47:11.983Z,23.17
2018-11-07T17:49:44.812Z,22.87
2018-11-07T17:52:16.935Z,24.80
2018-11-07T17:54:50.604Z,25.00
2018-11-07T17:57:22.914Z,25.20
2018-11-07T17:59:55.028Z,26.20
2018-11-07T18:02:27.063Z,27.67
2018-11-07T18:04:58.888Z,29.97
2018-11-07T18:07:31.111Z,29.70
2018-11-07T18:10:03.859Z,28.63
2018-11-07T18:12:37.121Z,27.00
2018-11-07T18:15:11.067Z,28.10
2018-11-07T18:17:43.241Z,27.60
2018-11-07T18:20:16.209Z,28.37
2018-11-07T18:22:48.335Z,27.57
2018-11-07T18:25:20.752Z,25.87
2018-11-07T18:27:52.781Z,26.27
2018-11-07T18:30:25.904Z,30.17
2018-11-07T18:32:57.884Z,29.30
2018-11-07T18:35:30.465Z,31.07
2018-11-07T18:40:46.445Z,28.27
2018-11-07T18:43:18.884Z,28.33
2018-11-07T18:45:51.050Z,27.30
2018-11-07T18:48:24.637Z,28.90
2018-11-07T18:50:56.665Z,31.07
2018-11-07T18:53:28.979Z,29.80
2018-11-07T18:56:01.428Z,28.30
2018-11-07T18:58:42.144Z,27.07
2018-11-07T19:01:18.540Z,26.13
2018-11-07T19:03:50.768Z,25.63
2018-11-07T19:06:23.716Z,27.60
2018-11-07T19:08:56.556Z,24.17
2018-11-07T19:11:28.718Z,26.27
2018-11-07T19:14:01.284Z,26.40
2018-11-07T19:16:34.067Z,26.73
2018-11-07T19:19:06.742Z,25.77
2018-11-07T19:21:38.837Z,28.20
2018-11-07T19:24:11.833Z,25.43
2018-11-07T19:26:44.448Z,25.60
2018-11-07T19:29:17.695Z,26.60
2018-11-07T19:31:50.173Z,25.13
2018-11-07T19:34:22.215Z,27.27
2018-11-07T19:36:54.716Z,26.77
2018-11-07T19:39:29.554Z,25.17
2018-11-07T19:42:02.080Z,23.97
2018-11-07T19:44:37.114Z,27.20
2018-11-07T19:47:10.625Z,26.70
2018-11-07T19:49:43.123Z,29.13
2018-11-07T19:52:25.766Z,25.37
2018-11-07T19:55:17.796Z,26.90
2018-11-07T19:58:04.444Z,25.57
2018-11-07T20:00:36.618Z,26.20
2018-11-07T20:03:09.641Z,27.07
2018-11-07T20:05:43.422Z,27.97
2018-11-07T20:08:15.860Z,27.50
2018-11-07T20:10:48.839Z,26.50
2018-11-07T20:13:21.337Z,25.43
2018-11-07T20:15:53.613Z,25.73
2018-11-07T20:18:25.942Z,24.73
2018-11-07T20:20:58.737Z,26.83
2018-11-07T20:23:31.023Z,25.47
2018-11-07T20:26:03.546Z,27.70
2018-11-07T20:29:06.185Z,27.70
2018-11-07T20:31:59.692Z,25.83
2018-11-07T20:34:35.005Z,25.87
2018-11-07T20:37:08.374Z,26.20
2018-11-07T20:42:49.721Z,26.00
2018-11-07T20:45:23.651Z,26.83
2018-11-07T20:47:55.902Z,27.80
2018-11-07T20:50:28.978Z,26.70
2018-11-07T20:53:02.118Z,26.97
2018-11-07T20:55:35.570Z,28.17
2018-11-07T20:58:11.534Z,27.07
2018-11-07T21:00:43.737Z,27.57
2018-11-07T21:03:15.909Z,26.93
2018-11-07T21:05:48.093Z,27.37
2018-11-07T21:08:20.878Z,28.63
2018-11-07T21:10:53.012Z,27.80
2018-11-07T21:13:25.624Z,28.00
2018-11-07T21:15:58.496Z,27.93
2018-11-07T21:18:30.654Z,27.20
2018-11-07T21:21:02.766Z,27.77
2018-11-07T21:23:36.640Z,28.97
2018-11-07T21:26:08.775Z,28.57
2018-11-07T21:28:40.730Z,27.07
2018-11-07T21:31:12.743Z,27.93
2018-11-07T21:33:46.766Z,26.80
2018-11-07T21:36:18.667Z,26.87
2018-11-07T21:38:50.776Z,27.97
2018-11-07T21:41:22.578Z,27.03
2018-11-07T21:43:54.825Z,28.40
2018-11-07T21:46:26.997Z,26.43
2018-11-07T21:48:59.091Z,26.50
2018-11-07T21:51:30.887Z,27.63
2018-11-07T21:54:02.975Z,28.47
2018-11-07T21:56:35.977Z,27.53
2018-11-07T21:59:09.265Z,28.80
2018-11-07T22:01:41.679Z,27.87
2018-11-07T22:04:14.426Z,28.00
2018-11-07T22:06:46.936Z,29.00
2018-11-07T22:09:19.199Z,29.33
2018-11-07T22:11:51.405Z,28.23
2018-11-07T22:14:23.803Z,27.20
2018-11-07T22:16:55.815Z,27.83
2018-11-07T22:19:27.731Z,27.97
2018-11-07T22:21:59.794Z,28.47
2018-11-07T22:24:31.820Z,28.60
2018-11-07T22:27:03.802Z,26.67
2018-11-07T22:29:36.288Z,28.93
2018-11-07T22:32:08.232Z,28.47
2018-11-07T22:34:41.180Z,30.30
2018-11-07T22:37:13.183Z,28.47
2018-11-07T22:39:45.146Z,28.80
2018-11-07T22:42:17.370Z,30.00
2018-11-07T22:44:50.132Z,29.97
2018-11-07T22:47:22.591Z,31.07
2018-11-07T22:49:54.736Z,29.63
2018-11-07T22:52:27.428Z,30.43
2018-11-07T22:54:59.684Z,29.07
2018-11-07T22:57:31.602Z,29.47
2018-11-07T23:00:03.566Z,30.47
2018-11-07T23:02:35.803Z,29.03
2018-11-07T23:05:08.372Z,31.80
2018-11-07T23:07:40.366Z,30.10
2018-11-07T23:10:12.850Z,31.43
2018-11-07T23:12:45.182Z,31.37
2018-11-07T23:15:21.979Z,30.10
2018-11-07T23:17:54.464Z,31.83
2018-11-07T23:20:26.590Z,30.33
2018-11-07T23:22:59.367Z,28.93
2018-11-07T23:25:32.130Z,30.37
2018-11-07T23:28:04.205Z,31.83
2018-11-07T23:30:36.723Z,30.87
2018-11-07T23:33:08.753Z,30.80
2018-11-07T23:35:40.798Z,32.83
2018-11-07T23:38:12.727Z,29.97
2018-11-07T23:40:46.127Z,30.47
2018-11-07T23:43:18.104Z,30.87
2018-11-07T23:45:51.056Z,31.80
2018-11-07T23:48:22.798Z,31.40
2018-11-07T23:50:54.740Z,31.07
2018-11-07T23:53:26.575Z,29.90
2018-11-07T23:55:58.513Z,29.80
2018-11-07T23:58:30.611Z,31.63
